createdAt,value
2018-09-13T00:00:47.307Z,0.00
2018-09-13T00:01:47.283Z,0.00
2018-09-13T00:02:47.261Z,0.00
2018-09-13T00:03:47.235Z,0.00
2018-09-13T00:04:47.211Z,0.00
2018-09-13T00:05:47.193Z,0.00
2018-09-13T00:06:47.164Z,0.00
2018-09-13T00:07:47.146Z,0.00
2018-09-13T00:08:47.118Z,0.00
2018-09-13T00:09:47.092Z,0.00
2018-09-13T00:10:47.069Z,0.00
2018-09-13T00:11:47.048Z,0.00
2018-09-13T00:12:47.023Z,0.00
2018-09-13T00:13:47.004Z,0.00
2018-09-13T00:14:47.031Z,0.00
2018-09-13T00:15:46.951Z,0.00
2018-09-13T00:16:46.928Z,0.00
2018-09-13T00:17:46.903Z,0.00
2018-09-13T00:18:46.881Z,0.00
2018-09-13T00:19:46.856Z,0.00
2018-09-13T00:20:46.833Z,0.00
2018-09-13T00:21:46.810Z,0.00
2018-09-13T00:22:46.785Z,0.00
2018-09-13T00:23:46.763Z,0.00
2018-09-13T00:24:46.739Z,0.00
2018-09-13T00:25:46.714Z,0.00
2018-09-13T00:26:46.693Z,0.00
2018-09-13T00:27:46.670Z,0.00
2018-09-13T00:28:46.643Z,0.00
2018-09-13T00:29:46.619Z,0.00
2018-09-13T00:30:46.595Z,0.00
2018-09-13T00:31:46.572Z,0.00
2018-09-13T00:32:46.548Z,0.00
2018-09-13T00:33:46.525Z,0.00
2018-09-13T00:34:46.503Z,0.00
2018-09-13T00:35:46.477Z,0.00
2018-09-13T00:36:46.454Z,0.00
2018-09-13T00:37:46.430Z,0.00
2018-09-13T00:38:46.410Z,0.00
2018-09-13T00:39:46.383Z,0.00
2018-09-13T00:40:46.360Z,0.00
2018-09-13T00:41:46.335Z,0.00
2018-09-13T00:42:46.312Z,0.00
2018-09-13T00:43:46.291Z,0.00
2018-09-13T00:44:46.262Z,0.00
2018-09-13T00:45:46.238Z,0.00
2018-09-13T00:46:46.217Z,0.00
2018-09-13T00:47:46.194Z,0.00
2018-09-13T00:48:46.167Z,0.00
2018-09-13T00:49:46.170Z,0.00
2018-09-13T00:50:46.120Z,0.00
2018-09-13T00:51:46.096Z,0.00
2018-09-13T00:52:46.072Z,0.00
2018-09-13T00:53:46.049Z,0.00
2018-09-13T00:54:46.026Z,0.00
2018-09-13T00:55:46.005Z,0.00
2018-09-13T00:56:45.976Z,0.00
2018-09-13T00:57:45.952Z,0.00
2018-09-13T00:58:45.930Z,0.00
2018-09-13T00:59:45.904Z,0.00
2018-09-13T01:00:45.881Z,0.00
2018-09-13T01:01:45.857Z,0.00
2018-09-13T01:02:45.834Z,0.00
2018-09-13T01:03:45.809Z,0.00
2018-09-13T01:04:45.785Z,0.00
2018-09-13T01:05:45.767Z,0.00
2018-09-13T01:06:45.738Z,0.00
2018-09-13T01:07:45.714Z,0.00
2018-09-13T01:08:45.688Z,0.00
2018-09-13T01:09:45.666Z,0.00
2018-09-13T01:10:45.643Z,0.00
2018-09-13T01:11:45.618Z,0.00
2018-09-13T01:12:45.595Z,0.00
2018-09-13T01:13:45.571Z,0.00
2018-09-13T01:14:45.547Z,0.00
2018-09-13T01:15:45.521Z,0.00
2018-09-13T01:16:45.499Z,0.00
2018-09-13T01:17:45.475Z,0.00
2018-09-13T01:18:45.450Z,0.00
2018-09-13T01:19:45.432Z,0.00
2018-09-13T01:20:45.403Z,0.00
2018-09-13T01:21:45.379Z,0.00
2018-09-13T01:22:45.361Z,0.00
2018-09-13T01:23:45.330Z,0.00
2018-09-13T01:24:45.309Z,0.00
2018-09-13T01:25:45.284Z,0.00
2018-09-13T01:26:45.259Z,0.00
2018-09-13T01:27:45.236Z,0.00
2018-09-13T01:28:45.211Z,0.00
2018-09-13T01:29:45.186Z,0.00
2018-09-13T01:30:45.167Z,0.00
2018-09-13T01:31:45.140Z,0.00
2018-09-13T01:32:45.116Z,0.00
2018-09-13T01:33:45.092Z,0.00
2018-09-13T01:34:45.069Z,0.00
2018-09-13T01:35:45.043Z,0.00
2018-09-13T01:36:45.020Z,0.00
2018-09-13T01:37:44.995Z,0.00
2018-09-13T01:38:44.972Z,0.00
2018-09-13T01:39:44.950Z,0.00
2018-09-13T01:40:44.925Z,0.00
2018-09-13T01:41:44.900Z,0.00
2018-09-13T01:42:44.877Z,0.00
2018-09-13T01:43:44.851Z,0.00
2018-09-13T01:44:44.828Z,0.00
2018-09-13T01:45:44.806Z,0.00
2018-09-13T01:46:44.780Z,0.00
2018-09-13T01:47:44.756Z,0.00
2018-09-13T01:48:44.731Z,0.00
2018-09-13T01:49:44.712Z,0.00
2018-09-13T01:50:44.685Z,0.00
2018-09-13T01:51:44.660Z,0.00
2018-09-13T01:52:44.636Z,0.00
2018-09-13T01:53:44.614Z,0.00
2018-09-13T01:54:44.589Z,0.00
2018-09-13T01:55:44.562Z,0.00
2018-09-13T01:56:44.540Z,0.00
2018-09-13T01:57:44.516Z,0.00
2018-09-13T01:58:44.492Z,0.00
2018-09-13T01:59:44.467Z,0.00
2018-09-13T02:00:44.442Z,0.00
2018-09-13T02:01:44.419Z,0.00
2018-09-13T02:02:44.395Z,0.00
2018-09-13T02:03:44.372Z,0.00
2018-09-13T02:04:44.348Z,0.00
2018-09-13T02:05:44.328Z,0.00
2018-09-13T02:06:44.301Z,0.00
2018-09-13T02:07:44.276Z,0.00
2018-09-13T02:08:44.250Z,0.00
2018-09-13T02:09:44.228Z,0.00
2018-09-13T02:10:44.205Z,0.00
2018-09-13T02:11:44.179Z,0.00
2018-09-13T02:12:44.156Z,0.00
2018-09-13T02:13:44.130Z,0.00
2018-09-13T02:14:44.108Z,0.00
2018-09-13T02:15:44.082Z,0.00
2018-09-13T02:16:44.060Z,0.00
2018-09-13T02:17:44.038Z,0.00
2018-09-13T02:18:44.012Z,0.00
2018-09-13T02:19:43.991Z,0.00
2018-09-13T02:20:43.962Z,0.00
2018-09-13T02:21:43.941Z,0.00
2018-09-13T02:22:43.915Z,0.00
2018-09-13T02:23:43.894Z,0.00
2018-09-13T02:24:43.866Z,0.00
2018-09-13T02:25:43.844Z,0.00
2018-09-13T02:26:43.820Z,0.00
2018-09-13T02:27:43.794Z,0.00
2018-09-13T02:28:43.772Z,0.00
2018-09-13T02:29:43.747Z,0.00
2018-09-13T02:30:43.728Z,0.00
2018-09-13T02:31:43.700Z,0.00
2018-09-13T02:32:43.676Z,0.00
2018-09-13T02:33:43.651Z,0.00
2018-09-13T02:34:43.628Z,0.00
2018-09-13T02:35:43.603Z,0.00
2018-09-13T02:36:43.580Z,0.00
2018-09-13T02:37:43.555Z,0.00
2018-09-13T02:38:43.533Z,0.00
2018-09-13T02:39:43.507Z,0.00
2018-09-13T02:40:43.482Z,0.00
2018-09-13T02:41:43.459Z,0.00
2018-09-13T02:42:43.434Z,0.00
2018-09-13T02:43:43.412Z,0.00
2018-09-13T02:44:43.390Z,0.00
2018-09-13T02:45:43.364Z,0.00
2018-09-13T02:46:43.338Z,0.00
2018-09-13T02:47:43.314Z,0.00
2018-09-13T02:48:43.291Z,0.00
2018-09-13T02:49:43.269Z,0.00
2018-09-13T02:50:43.244Z,0.00
2018-09-13T02:51:43.218Z,0.00
2018-09-13T02:52:43.195Z,0.00
2018-09-13T02:53:43.171Z,0.00
2018-09-13T02:54:43.149Z,0.00
2018-09-13T02:55:43.124Z,0.00
2018-09-13T02:56:43.101Z,0.00
2018-09-13T02:57:43.076Z,0.00
2018-09-13T02:58:43.053Z,0.00
2018-09-13T02:59:43.026Z,0.00
2018-09-13T03:00:43.008Z,0.00
2018-09-13T03:01:42.980Z,0.00
2018-09-13T03:02:42.956Z,0.00
2018-09-13T03:03:42.931Z,0.00
2018-09-13T03:04:42.908Z,0.00
2018-09-13T03:05:42.884Z,0.00
2018-09-13T03:06:42.861Z,0.00
2018-09-13T03:07:42.835Z,0.00
2018-09-13T03:08:42.812Z,0.00
2018-09-13T03:09:42.789Z,0.00
2018-09-13T03:10:42.765Z,0.00
2018-09-13T03:11:42.740Z,0.00
2018-09-13T03:12:42.715Z,0.00
2018-09-13T03:13:42.693Z,0.00
2018-09-13T03:14:42.668Z,0.00
2018-09-13T03:15:42.654Z,0.00
2018-09-13T03:16:42.634Z,0.00
2018-09-13T03:17:42.598Z,0.00
2018-09-13T03:18:42.574Z,0.00
2018-09-13T03:19:42.547Z,0.00
2018-09-13T03:20:42.525Z,0.00
2018-09-13T03:21:42.502Z,0.00
2018-09-13T03:22:42.478Z,0.00
2018-09-13T03:23:42.451Z,0.00
2018-09-13T03:24:42.428Z,0.00
2018-09-13T03:25:42.408Z,0.00
2018-09-13T03:26:42.381Z,0.00
2018-09-13T03:27:42.357Z,0.00
2018-09-13T03:28:42.334Z,0.00
2018-09-13T03:29:42.309Z,0.00
2018-09-13T03:30:42.286Z,0.00
2018-09-13T03:31:42.262Z,0.00
2018-09-13T03:32:42.237Z,0.00
2018-09-13T03:33:42.213Z,0.00
2018-09-13T03:34:42.196Z,0.00
2018-09-13T03:35:42.166Z,0.00
2018-09-13T03:36:42.142Z,0.00
2018-09-13T03:37:42.116Z,0.00
2018-09-13T03:38:42.095Z,0.00
2018-09-13T03:39:42.069Z,0.00
2018-09-13T03:40:42.045Z,0.00
2018-09-13T03:41:42.021Z,0.00
2018-09-13T03:42:41.998Z,0.00
2018-09-13T03:43:41.973Z,0.00
2018-09-13T03:44:41.948Z,0.00
2018-09-13T03:45:41.926Z,0.00
2018-09-13T03:46:41.902Z,0.00
2018-09-13T03:47:41.877Z,0.00
2018-09-13T03:48:41.853Z,0.00
2018-09-13T03:49:41.830Z,0.00
2018-09-13T03:50:41.806Z,0.00
2018-09-13T03:51:41.780Z,0.00
2018-09-13T03:52:41.757Z,0.00
2018-09-13T03:53:41.734Z,0.00
2018-09-13T03:54:41.711Z,0.00
2018-09-13T03:55:41.686Z,0.00
2018-09-13T03:56:41.695Z,0.00
2018-09-13T03:57:41.640Z,0.00
2018-09-13T03:58:41.614Z,0.00
2018-09-13T03:59:41.590Z,0.00
2018-09-13T04:00:41.565Z,0.00
2018-09-13T04:01:41.546Z,0.00
2018-09-13T04:02:41.521Z,0.00
2018-09-13T04:03:41.493Z,0.00
2018-09-13T04:04:41.468Z,0.00
2018-09-13T04:05:41.444Z,0.00
2018-09-13T04:06:41.422Z,0.00
2018-09-13T04:07:41.398Z,0.00
2018-09-13T04:08:41.373Z,0.00
2018-09-13T04:09:41.355Z,0.00
2018-09-13T04:10:41.351Z,0.00
2018-09-13T04:11:41.305Z,0.00
2018-09-13T04:12:41.278Z,0.00
2018-09-13T04:13:41.255Z,0.00
2018-09-13T04:14:41.231Z,0.00
2018-09-13T04:15:41.210Z,0.00
2018-09-13T04:16:41.181Z,0.00
2018-09-13T04:17:41.159Z,0.00
2018-09-13T04:18:41.231Z,0.00
2018-09-13T04:19:41.111Z,0.00
2018-09-13T04:20:41.088Z,0.00
2018-09-13T04:21:41.062Z,0.00
2018-09-13T04:22:41.050Z,0.00
2018-09-13T04:23:41.014Z,0.00
2018-09-13T04:24:40.989Z,0.00
2018-09-13T04:25:40.966Z,0.00
2018-09-13T04:26:40.943Z,0.00
2018-09-13T04:27:40.920Z,0.00
2018-09-13T04:28:40.895Z,0.00
2018-09-13T04:29:40.871Z,0.00
2018-09-13T04:30:40.848Z,0.00
2018-09-13T04:31:40.825Z,0.00
2018-09-13T04:32:40.800Z,0.00
2018-09-13T04:33:40.776Z,0.00
2018-09-13T04:34:40.752Z,0.00
2018-09-13T04:35:40.867Z,0.00
2018-09-13T04:36:40.705Z,0.00
2018-09-13T04:37:40.681Z,0.00
2018-09-13T04:38:40.657Z,0.00
2018-09-13T04:39:40.632Z,0.00
2018-09-13T04:40:40.609Z,0.00
2018-09-13T04:41:40.588Z,0.00
2018-09-13T04:42:40.561Z,0.00
2018-09-13T04:43:40.535Z,0.00
2018-09-13T04:44:40.513Z,0.00
2018-09-13T04:45:40.488Z,5.63
2018-09-13T04:46:40.465Z,5.63
2018-09-13T04:47:40.441Z,5.63
2018-09-13T04:48:40.418Z,5.63
2018-09-13T04:49:40.396Z,5.63
2018-09-13T04:50:40.371Z,5.63
2018-09-13T04:51:40.346Z,5.63
2018-09-13T04:52:40.322Z,11.25
2018-09-13T04:53:40.298Z,11.25
2018-09-13T04:54:40.276Z,11.25
2018-09-13T04:55:40.252Z,11.25
2018-09-13T04:56:40.230Z,11.25
2018-09-13T04:57:40.204Z,16.88
2018-09-13T04:58:40.179Z,16.88
2018-09-13T04:59:40.156Z,16.88
2018-09-13T05:00:40.132Z,16.88
2018-09-13T05:01:40.108Z,22.50
2018-09-13T05:02:40.084Z,22.50
2018-09-13T05:03:40.061Z,22.50
2018-09-13T05:04:40.040Z,22.50
2018-09-13T05:05:40.013Z,28.13
2018-09-13T05:06:40.026Z,28.13
2018-09-13T05:07:39.966Z,28.13
2018-09-13T05:08:39.941Z,28.13
2018-09-13T05:09:39.918Z,28.13
2018-09-13T05:10:39.894Z,28.13
2018-09-13T05:11:39.870Z,28.13
2018-09-13T05:12:39.850Z,28.13
2018-09-13T05:13:39.823Z,33.75
2018-09-13T05:14:39.799Z,33.75
2018-09-13T05:15:39.774Z,33.75
2018-09-13T05:16:39.753Z,33.75
2018-09-13T05:17:39.728Z,39.38
2018-09-13T05:18:39.703Z,39.38
2018-09-13T05:19:39.680Z,39.38
2018-09-13T05:20:39.655Z,45.00
2018-09-13T05:21:39.634Z,45.00
2018-09-13T05:22:39.613Z,45.00
2018-09-13T05:23:39.585Z,45.00
2018-09-13T05:24:39.561Z,45.00
2018-09-13T05:25:39.538Z,45.00
2018-09-13T05:26:39.515Z,45.00
2018-09-13T05:27:39.490Z,45.00
2018-09-13T05:28:39.466Z,45.00
2018-09-13T05:29:39.442Z,45.00
2018-09-13T05:30:39.419Z,50.63
2018-09-13T05:31:39.403Z,50.63
2018-09-13T05:32:39.370Z,50.63
2018-09-13T05:33:39.355Z,50.63
2018-09-13T05:34:39.324Z,56.25
2018-09-13T05:35:39.300Z,56.25
2018-09-13T05:36:39.277Z,61.88
2018-09-13T05:37:39.253Z,61.88
2018-09-13T05:38:39.264Z,67.50
2018-09-13T05:39:39.205Z,67.50
2018-09-13T05:40:39.182Z,67.50
2018-09-13T05:41:39.159Z,73.13
2018-09-13T05:42:39.134Z,73.13
2018-09-13T05:43:39.112Z,73.13
2018-09-13T05:44:39.151Z,73.13
2018-09-13T05:45:39.065Z,73.13
2018-09-13T05:46:39.041Z,73.13
2018-09-13T05:47:39.016Z,73.13
2018-09-13T05:48:38.992Z,73.13
2018-09-13T05:49:38.970Z,78.75
2018-09-13T05:50:38.947Z,78.75
2018-09-13T05:51:38.922Z,84.38
2018-09-13T05:52:38.901Z,90.00
2018-09-13T05:53:38.874Z,90.00
2018-09-13T05:54:38.851Z,90.00
2018-09-13T05:55:38.828Z,95.63
2018-09-13T05:56:38.804Z,95.63
2018-09-13T05:57:38.781Z,101.25
2018-09-13T05:58:38.758Z,101.25
2018-09-13T05:59:38.732Z,106.88
2018-09-13T06:00:38.708Z,106.88
2018-09-13T06:01:38.689Z,106.88
2018-09-13T06:02:38.663Z,106.88
2018-09-13T06:03:38.639Z,112.50
2018-09-13T06:04:38.616Z,112.50
2018-09-13T06:05:38.592Z,118.13
2018-09-13T06:06:38.574Z,123.75
2018-09-13T06:07:38.546Z,129.38
2018-09-13T06:08:38.522Z,129.38
2018-09-13T06:09:38.499Z,135.00
2018-09-13T06:10:38.475Z,140.63
2018-09-13T06:11:38.450Z,140.63
2018-09-13T06:12:38.428Z,146.25
2018-09-13T06:13:38.486Z,146.25
2018-09-13T06:14:38.380Z,146.25
2018-09-13T06:15:38.356Z,146.25
2018-09-13T06:16:38.333Z,146.25
2018-09-13T06:17:38.310Z,146.25
2018-09-13T06:18:38.288Z,146.25
2018-09-13T06:19:38.297Z,146.25
2018-09-13T06:20:38.245Z,140.63
2018-09-13T06:21:38.216Z,140.63
2018-09-13T06:22:38.194Z,140.63
2018-09-13T06:23:38.168Z,140.63
2018-09-13T06:24:38.148Z,135.00
2018-09-13T06:25:38.123Z,129.38
2018-09-13T06:26:38.101Z,129.38
2018-09-13T06:27:38.079Z,129.38
2018-09-13T06:28:38.053Z,135.00
2018-09-13T06:29:38.119Z,140.63
2018-09-13T06:30:38.009Z,146.25
2018-09-13T06:31:37.983Z,151.88
2018-09-13T06:32:37.961Z,157.50
2018-09-13T06:33:37.936Z,163.13
2018-09-13T06:34:37.914Z,163.13
2018-09-13T06:35:37.891Z,168.75
2018-09-13T06:36:37.867Z,174.38
2018-09-13T06:37:37.848Z,180.00
2018-09-13T06:38:37.822Z,191.25
2018-09-13T06:39:37.798Z,196.88
2018-09-13T06:40:37.774Z,208.13
2018-09-13T06:41:37.752Z,213.75
2018-09-13T06:42:37.733Z,219.38
2018-09-13T06:43:37.705Z,230.63
2018-09-13T06:44:37.682Z,236.25
2018-09-13T06:45:37.662Z,241.88
2018-09-13T06:46:37.637Z,247.50
2018-09-13T06:47:37.611Z,258.75
2018-09-13T06:48:37.670Z,270.00
2018-09-13T06:49:37.566Z,275.63
2018-09-13T06:50:37.544Z,286.88
2018-09-13T06:51:37.520Z,292.50
2018-09-13T06:52:37.497Z,298.13
2018-09-13T06:53:37.474Z,309.38
2018-09-13T06:54:37.451Z,320.63
2018-09-13T06:55:37.428Z,326.25
2018-09-13T06:56:37.409Z,326.25
2018-09-13T06:57:37.386Z,315.00
2018-09-13T06:58:37.359Z,303.75
2018-09-13T06:59:37.337Z,292.50
2018-09-13T07:00:37.316Z,275.63
2018-09-13T07:01:37.291Z,264.38
2018-09-13T07:02:37.343Z,258.75
2018-09-13T07:03:37.246Z,253.13
2018-09-13T07:04:37.223Z,247.50
2018-09-13T07:05:37.199Z,253.13
2018-09-13T07:06:37.177Z,253.13
2018-09-13T07:07:37.153Z,258.75
2018-09-13T07:08:37.134Z,264.38
2018-09-13T07:09:37.108Z,264.38
2018-09-13T07:10:37.085Z,270.00
2018-09-13T07:11:37.063Z,270.00
2018-09-13T07:12:37.039Z,281.25
2018-09-13T07:13:37.016Z,292.50
2018-09-13T07:14:37.025Z,303.75
2018-09-13T07:15:36.976Z,320.63
2018-09-13T07:16:36.947Z,337.50
2018-09-13T07:17:36.924Z,348.75
2018-09-13T07:18:36.901Z,360.00
2018-09-13T07:19:36.879Z,382.50
2018-09-13T07:20:36.855Z,405.00
2018-09-13T07:21:36.832Z,421.88
2018-09-13T07:22:36.808Z,433.13
2018-09-13T07:23:36.818Z,455.63
2018-09-13T07:24:36.764Z,478.13
2018-09-13T07:25:36.740Z,489.38
2018-09-13T07:26:36.718Z,489.38
2018-09-13T07:27:36.695Z,500.63
2018-09-13T07:28:36.673Z,517.50
2018-09-13T07:29:36.651Z,506.25
2018-09-13T07:30:36.626Z,495.00
2018-09-13T07:31:36.603Z,489.38
2018-09-13T07:32:36.581Z,478.13
2018-09-13T07:33:36.558Z,478.13
2018-09-13T07:34:36.537Z,500.63
2018-09-13T07:35:36.512Z,540.00
2018-09-13T07:36:36.498Z,590.63
2018-09-13T07:37:36.468Z,613.13
2018-09-13T07:38:36.447Z,663.75
2018-09-13T07:39:36.422Z,714.38
2018-09-13T07:40:36.400Z,753.75
2018-09-13T07:41:36.379Z,776.25
2018-09-13T07:42:36.428Z,798.75
2018-09-13T07:43:36.339Z,815.63
2018-09-13T07:44:36.311Z,843.75
2018-09-13T07:45:36.291Z,871.88
2018-09-13T07:46:36.267Z,900.00
2018-09-13T07:47:36.246Z,916.88
2018-09-13T07:48:36.224Z,922.50
2018-09-13T07:49:36.318Z,922.50
2018-09-13T07:50:36.180Z,905.63
2018-09-13T07:51:36.162Z,877.50
2018-09-13T07:52:36.136Z,838.13
2018-09-13T07:53:36.115Z,826.88
2018-09-13T07:54:36.094Z,804.38
2018-09-13T07:55:36.092Z,765.00
2018-09-13T07:56:36.051Z,753.75
2018-09-13T07:57:36.028Z,759.38
2018-09-13T07:58:36.007Z,770.63
2018-09-13T07:59:35.984Z,793.13
2018-09-13T08:00:35.970Z,843.75
2018-09-13T08:01:35.943Z,871.88
2018-09-13T08:02:35.922Z,916.88
2018-09-13T08:03:35.900Z,950.63
2018-09-13T08:04:35.889Z,939.38
2018-09-13T08:05:35.857Z,905.63
2018-09-13T08:06:35.837Z,871.88
2018-09-13T08:07:35.815Z,787.50
2018-09-13T08:08:35.793Z,691.88
2018-09-13T08:09:35.776Z,590.63
2018-09-13T08:10:35.751Z,540.00
2018-09-13T08:11:35.730Z,506.25
2018-09-13T08:12:35.711Z,472.50
2018-09-13T08:13:35.688Z,455.63
2018-09-13T08:14:35.667Z,461.25
2018-09-13T08:15:35.645Z,495.00
2018-09-13T08:16:35.623Z,534.38
2018-09-13T08:17:35.601Z,556.88
2018-09-13T08:18:35.581Z,579.38
2018-09-13T08:19:35.560Z,579.38
2018-09-13T08:20:35.538Z,551.25
2018-09-13T08:21:35.530Z,528.75
2018-09-13T08:22:35.497Z,523.13
2018-09-13T08:23:35.475Z,534.38
2018-09-13T08:24:35.451Z,545.63
2018-09-13T08:25:35.432Z,562.50
2018-09-13T08:26:35.411Z,573.75
2018-09-13T08:27:35.389Z,579.38
2018-09-13T08:28:35.367Z,596.25
2018-09-13T08:29:35.346Z,624.38
2018-09-13T08:30:35.325Z,641.25
2018-09-13T08:31:35.303Z,646.88
2018-09-13T08:32:35.280Z,663.75
2018-09-13T08:33:35.261Z,669.38
2018-09-13T08:34:35.316Z,675.00
2018-09-13T08:35:35.218Z,669.38
2018-09-13T08:36:35.196Z,680.63
2018-09-13T08:37:35.176Z,686.25
2018-09-13T08:38:35.155Z,691.88
2018-09-13T08:39:35.134Z,697.50
2018-09-13T08:40:35.110Z,697.50
2018-09-13T08:41:35.089Z,691.88
2018-09-13T08:42:35.088Z,720.00
2018-09-13T08:43:35.047Z,742.50
2018-09-13T08:44:35.024Z,770.63
2018-09-13T08:45:35.004Z,804.38
2018-09-13T08:46:34.983Z,826.88
2018-09-13T08:47:34.976Z,855.00
2018-09-13T08:48:34.939Z,888.75
2018-09-13T08:49:34.918Z,922.50
2018-09-13T08:50:34.898Z,950.63
2018-09-13T08:51:34.888Z,984.38
2018-09-13T08:52:34.856Z,1023.75
2018-09-13T08:53:34.835Z,1051.88
2018-09-13T08:54:34.814Z,1080.00
2018-09-13T08:55:34.793Z,1096.88
2018-09-13T08:56:34.773Z,1108.13
2018-09-13T08:57:34.752Z,1096.88
2018-09-13T08:58:34.733Z,1074.38
2018-09-13T08:59:34.709Z,1046.25
2018-09-13T09:00:34.705Z,1029.38
2018-09-13T09:01:34.670Z,1001.25
2018-09-13T09:02:34.649Z,967.50
2018-09-13T09:03:34.628Z,950.63
2018-09-13T09:04:34.610Z,945.00
2018-09-13T09:05:34.589Z,950.63
2018-09-13T09:06:34.672Z,945.00
2018-09-13T09:07:34.548Z,933.75
2018-09-13T09:08:34.528Z,905.63
2018-09-13T09:09:34.509Z,883.13
2018-09-13T09:10:34.489Z,877.50
2018-09-13T09:11:34.470Z,871.88
2018-09-13T09:12:34.451Z,888.75
2018-09-13T09:13:34.427Z,916.88
2018-09-13T09:14:34.408Z,961.88
2018-09-13T09:15:34.389Z,1006.88
2018-09-13T09:16:34.366Z,1046.25
2018-09-13T09:17:34.349Z,1068.75
2018-09-13T09:18:34.353Z,1080.00
2018-09-13T09:19:34.328Z,1074.38
2018-09-13T09:20:34.287Z,1063.13
2018-09-13T09:21:34.267Z,1051.88
2018-09-13T09:22:34.247Z,1029.38
2018-09-13T09:23:34.226Z,1001.25
2018-09-13T09:24:34.208Z,973.13
2018-09-13T09:25:34.188Z,933.75
2018-09-13T09:26:34.167Z,894.38
2018-09-13T09:27:34.146Z,860.63
2018-09-13T09:28:34.127Z,832.50
2018-09-13T09:29:34.106Z,804.38
2018-09-13T09:30:34.092Z,787.50
2018-09-13T09:31:34.066Z,793.13
2018-09-13T09:32:34.046Z,821.25
2018-09-13T09:33:34.026Z,843.75
2018-09-13T09:34:34.070Z,871.88
2018-09-13T09:35:33.986Z,900.00
2018-09-13T09:36:33.966Z,922.50
2018-09-13T09:37:33.946Z,928.13
2018-09-13T09:38:33.927Z,928.13
2018-09-13T09:39:33.905Z,928.13
2018-09-13T09:40:33.914Z,916.88
2018-09-13T09:41:33.866Z,916.88
2018-09-13T09:42:33.845Z,928.13
2018-09-13T09:43:33.826Z,950.63
2018-09-13T09:44:33.806Z,973.13
2018-09-13T09:45:33.789Z,1018.13
2018-09-13T09:46:33.772Z,1035.00
2018-09-13T09:47:33.746Z,1035.00
2018-09-13T09:48:33.726Z,1023.75
2018-09-13T09:49:33.705Z,1012.50
2018-09-13T09:50:33.750Z,1001.25
2018-09-13T09:51:33.666Z,984.38
2018-09-13T09:52:33.645Z,978.75
2018-09-13T09:53:33.644Z,990.00
2018-09-13T09:54:33.606Z,1012.50
2018-09-13T09:55:33.585Z,1040.63
2018-09-13T09:56:33.566Z,1063.13
2018-09-13T09:57:33.547Z,1085.63
2018-09-13T09:58:33.533Z,1102.50
2018-09-13T09:59:33.508Z,1108.13
2018-09-13T10:00:33.487Z,1091.25
2018-09-13T10:01:33.467Z,1074.38
2018-09-13T10:02:33.448Z,1057.50
2018-09-13T10:03:33.476Z,1051.88
2018-09-13T10:04:33.551Z,1051.88
2018-09-13T10:05:33.388Z,1051.88
2018-09-13T10:06:33.369Z,1051.88
2018-09-13T10:07:33.384Z,1051.88
2018-09-13T10:08:33.328Z,1046.25
2018-09-13T10:09:33.329Z,1035.00
2018-09-13T10:10:33.289Z,1023.75
2018-09-13T10:11:33.271Z,1006.88
2018-09-13T10:12:33.250Z,1006.88
2018-09-13T10:13:33.230Z,1023.75
2018-09-13T10:14:33.211Z,1029.38
2018-09-13T10:15:33.190Z,1040.63
2018-09-13T10:16:33.171Z,1012.50
2018-09-13T10:17:33.152Z,973.13
2018-09-13T10:18:33.134Z,950.63
2018-09-13T10:19:33.111Z,933.75
2018-09-13T10:20:33.090Z,916.88
2018-09-13T10:21:33.072Z,916.88
2018-09-13T10:22:33.052Z,922.50
2018-09-13T10:23:33.035Z,922.50
2018-09-13T10:24:33.011Z,922.50
2018-09-13T10:25:32.991Z,922.50
2018-09-13T10:26:34.518Z,950.63
2018-09-13T10:27:32.951Z,990.00
2018-09-13T10:28:32.968Z,1040.63
2018-09-13T10:29:32.915Z,1080.00
2018-09-13T10:30:32.892Z,1091.25
2018-09-13T10:31:32.874Z,1063.13
2018-09-13T10:32:32.851Z,1018.13
2018-09-13T10:33:32.836Z,984.38
2018-09-13T10:34:32.814Z,967.50
2018-09-13T10:35:32.792Z,978.75
2018-09-13T10:36:32.773Z,1018.13
2018-09-13T10:37:32.754Z,1046.25
2018-09-13T10:38:32.734Z,1051.88
2018-09-13T10:39:32.714Z,1040.63
2018-09-13T10:40:32.739Z,1018.13
2018-09-13T10:41:32.688Z,1006.88
2018-09-13T10:42:32.655Z,1006.88
2018-09-13T10:43:32.634Z,990.00
2018-09-13T10:44:32.616Z,978.75
2018-09-13T10:45:32.595Z,939.38
2018-09-13T10:46:32.588Z,900.00
2018-09-13T10:47:32.561Z,855.00
2018-09-13T10:48:32.536Z,798.75
2018-09-13T10:49:32.516Z,753.75
2018-09-13T10:50:32.528Z,736.88
2018-09-13T10:51:32.557Z,720.00
2018-09-13T10:52:32.471Z,720.00
2018-09-13T10:53:32.437Z,714.38
2018-09-13T10:54:32.417Z,703.13
2018-09-13T10:55:32.430Z,697.50
2018-09-13T10:56:32.377Z,703.13
2018-09-13T10:57:32.357Z,720.00
2018-09-13T10:58:32.339Z,720.00
2018-09-13T10:59:32.317Z,708.75
2018-09-13T11:00:32.297Z,708.75
2018-09-13T11:01:32.278Z,720.00
2018-09-13T11:02:32.257Z,736.88
2018-09-13T11:03:32.237Z,753.75
2018-09-13T11:04:32.255Z,759.38
2018-09-13T11:05:32.251Z,776.25
2018-09-13T11:06:32.177Z,793.13
2018-09-13T11:07:32.155Z,815.63
2018-09-13T11:08:32.137Z,826.88
2018-09-13T11:09:32.116Z,855.00
2018-09-13T11:10:32.170Z,888.75
2018-09-13T11:11:32.076Z,916.88
2018-09-13T11:12:32.057Z,911.25
2018-09-13T11:13:32.044Z,883.13
2018-09-13T11:14:32.016Z,860.63
2018-09-13T11:15:31.995Z,855.00
2018-09-13T11:16:31.980Z,855.00
2018-09-13T11:17:31.955Z,843.75
2018-09-13T11:18:31.935Z,826.88
2018-09-13T11:19:31.914Z,821.25
2018-09-13T11:20:31.895Z,843.75
2018-09-13T11:21:31.882Z,883.13
2018-09-13T11:22:31.854Z,911.25
2018-09-13T11:23:31.834Z,922.50
2018-09-13T11:24:31.864Z,905.63
2018-09-13T11:25:31.794Z,894.38
2018-09-13T11:26:31.775Z,905.63
2018-09-13T11:27:31.758Z,933.75
2018-09-13T11:28:31.735Z,950.63
2018-09-13T11:29:31.716Z,945.00
2018-09-13T11:30:31.710Z,928.13
2018-09-13T11:31:31.675Z,900.00
2018-09-13T11:32:31.658Z,883.13
2018-09-13T11:33:31.636Z,860.63
2018-09-13T11:34:31.616Z,838.13
2018-09-13T11:35:31.596Z,821.25
2018-09-13T11:36:31.577Z,798.75
2018-09-13T11:37:31.557Z,781.88
2018-09-13T11:38:31.537Z,765.00
2018-09-13T11:39:31.661Z,753.75
2018-09-13T11:40:31.730Z,725.63
2018-09-13T11:41:31.484Z,697.50
2018-09-13T11:42:31.458Z,680.63
2018-09-13T11:43:31.438Z,663.75
2018-09-13T11:44:31.418Z,635.63
2018-09-13T11:45:31.397Z,607.50
2018-09-13T11:46:31.378Z,585.00
2018-09-13T11:47:31.358Z,568.13
2018-09-13T11:48:31.340Z,540.00
2018-09-13T11:49:31.320Z,528.75
2018-09-13T11:50:31.301Z,517.50
2018-09-13T11:51:31.279Z,500.63
2018-09-13T11:52:31.258Z,489.38
2018-09-13T11:53:31.239Z,495.00
2018-09-13T11:54:31.220Z,517.50
2018-09-13T11:55:31.200Z,534.38
2018-09-13T11:56:31.179Z,562.50
2018-09-13T11:57:31.160Z,590.63
2018-09-13T11:58:31.140Z,618.75
2018-09-13T11:59:31.120Z,652.50
2018-09-13T12:00:31.100Z,703.13
2018-09-13T12:01:31.081Z,770.63
2018-09-13T12:02:31.060Z,826.88
2018-09-13T12:03:31.039Z,883.13
2018-09-13T12:04:31.020Z,950.63
2018-09-13T12:05:31.000Z,1023.75
2018-09-13T12:06:30.981Z,1096.88
2018-09-13T12:07:30.961Z,1147.50
2018-09-13T12:08:30.939Z,1192.50
2018-09-13T12:09:30.926Z,1265.63
2018-09-13T12:10:30.899Z,1372.50
2018-09-13T12:11:30.879Z,1434.38
2018-09-13T12:12:30.859Z,1468.13
2018-09-13T12:13:30.840Z,1507.50
2018-09-13T12:14:30.822Z,1563.75
2018-09-13T12:15:30.802Z,1642.50
2018-09-13T12:16:30.782Z,1850.63
2018-09-13T12:17:30.762Z,1906.88
2018-09-13T12:18:30.810Z,1665.00
2018-09-13T12:19:30.724Z,1597.50
2018-09-13T12:20:30.707Z,1541.25
2018-09-13T12:21:30.687Z,1462.50
2018-09-13T12:22:30.728Z,1338.75
2018-09-13T12:23:30.650Z,1231.88
2018-09-13T12:24:30.631Z,1080.00
2018-09-13T12:25:30.614Z,984.38
2018-09-13T12:26:30.596Z,916.88
2018-09-13T12:27:30.596Z,883.13
2018-09-13T12:28:30.563Z,860.63
2018-09-13T12:29:30.538Z,860.63
2018-09-13T12:30:30.521Z,860.63
2018-09-13T12:31:30.499Z,866.25
2018-09-13T12:32:30.535Z,871.88
2018-09-13T12:33:30.472Z,888.75
2018-09-13T12:34:30.443Z,905.63
2018-09-13T12:35:30.422Z,922.50
2018-09-13T12:36:30.405Z,922.50
2018-09-13T12:37:30.385Z,928.13
2018-09-13T12:38:30.366Z,933.75
2018-09-13T12:39:30.345Z,928.13
2018-09-13T12:40:30.328Z,933.75
2018-09-13T12:41:30.308Z,933.75
2018-09-13T12:42:30.290Z,911.25
2018-09-13T12:43:30.269Z,894.38
2018-09-13T12:44:30.252Z,860.63
2018-09-13T12:45:30.232Z,849.38
2018-09-13T12:46:30.213Z,866.25